Time;durP1;ratioP1;P1;durP2;ratioP2;P2;SDS_P1;SDS_P2;PMS_P1;PMS_P2;Temp;Humidity;BMP_temperature;BMP_pressure;BME280_temperature;BME280_humidity;BME280_pressure;Samples;Min_cycle;Max_cycle;Signal;HPM_P1;HPM_P2
2022/06/02 00:01:39;;;;;;;1.10;1.00;;;14.00;98.00;;;;;;5035342;28;20487;-87
2022/06/02 00:04:19;;;;;;;1.43;0.90;;;14.00;98.20;;;;;;5034507;28;20466;-88
2022/06/02 00:06:51;;;;;;;1.70;1.20;;;13.90;98.90;;;;;;5035419;28;20451;-88
2022/06/02 00:09:43;;;;;;;1.83;1.10;;;13.90;99.00;;;;;;5035360;28;20511;-88
2022/06/02 00:12:23;;;;;;;1.20;1.03;;;13.90;99.30;;;;;;5035194;28;20855;-88
2022/06/02 00:14:57;;;;;;;1.20;1.10;;;14.60;99.40;;;;;;5035200;28;20455;-87
2022/06/02 00:17:32;;;;;;;3.50;1.47;;;13.90;99.40;;;;;;5033455;28;20872;-87
2022/06/02 00:20:05;;;;;;;1.83;1.47;;;13.60;98.90;;;;;;5033608;28;20517;-87
2022/06/02 00:22:39;;;;;;;1.33;1.17;;;13.90;99.20;;;;;;5035471;28;21143;-87
2022/06/02 00:25:13;;;;;;;2.53;1.00;;;13.80;99.90;;;;;;5034888;28;20468;-87
2022/06/02 00:27:46;;;;;;;1.67;1.17;;;13.80;99.90;;;;;;5034966;28;20447;-89
2022/06/02 00:30:20;;;;;;;2.03;1.20;;;13.80;99.90;;;;;;5034839;28;20821;-87
2022/06/02 00:32:56;;;;;;;1.10;1.00;;;13.80;99.90;;;;;;5035482;28;20455;-87
2022/06/02 00:35:34;;;;;;;2.00;1.20;;;13.80;97.50;;;;;;5033455;28;20446;-88
2022/06/02 00:38:05;;;;;;;2.17;1.27;;;13.80;99.90;;;;;;5034813;28;20455;-88
2022/06/02 00:40:37;;;;;;;1.43;1.23;;;13.70;99.90;;;;;;5034881;28;20466;-87
2022/06/02 00:43:23;;;;;;;3.73;1.60;;;13.70;98.60;;;;;;5000330;28;20495;-88
2022/06/02 00:45:58;;;;;;;1.10;1.00;;;13.60;99.90;;;;;;5034808;28;20444;-88
2022/06/02 00:48:43;;;;;;;2.17;1.30;;;13.70;99.90;;;;;;5033220;28;20447;-89
2022/06/02 00:51:14;;;;;;;1.70;1.30;;;13.60;99.90;;;;;;5034298;28;20447;-88
2022/06/02 00:57:30;;;;;;;1.50;1.00;;;13.60;99.90;;;;;;5034310;28;20447;-88
2022/06/02 00:59:44;;;;;;;3.20;1.40;;;13.60;99.90;;;;;;5034207;28;20462;-88
2022/06/02 01:02:11;;;;;;;2.47;1.23;;;;;;;;;;5034319;28;20499;-89
2022/06/02 01:04:43;;;;;;;1.27;1.17;;;13.50;99.90;;;;;;5033083;28;20459;-86
2022/06/02 01:07:21;;;;;;;4.00;1.50;;;13.40;99.90;;;;;;5034119;28;20447;-86
2022/06/02 01:10:07;;;;;;;3.33;1.20;;;13.40;99.90;;;;;;5033849;28;20502;-88
2022/06/02 01:13:03;;;;;;;1.70;1.20;;;13.40;99.90;;;;;;5035202;28;20844;-89
2022/06/02 01:15:43;;;;;;;2.70;1.20;;;13.40;99.90;;;;;;5034078;28;20447;-88
2022/06/02 01:18:19;;;;;;;2.73;1.50;;;13.40;99.90;;;;;;5033785;28;20483;-89
2022/06/02 01:20:57;;;;;;;1.93;1.13;;;13.40;99.90;;;;;;5033588;28;20937;-90
2022/06/02 01:24:04;;;;;;;2.10;1.50;;;13.40;99.90;;;;;;5033710;28;20499;-88
2022/06/02 01:26:52;;;;;;;1.30;1.20;;;13.40;99.90;;;;;;5004376;28;20798;-89
2022/06/02 01:29:48;;;;;;;1.23;1.00;;;13.30;99.90;;;;;;5033915;28;20464;-88
2022/06/02 01:32:21;;;;;;;3.47;1.03;;;13.30;99.90;;;;;;5034820;28;20462;-88
2022/06/02 01:35:00;;;;;;;6.47;1.43;;;13.30;99.90;;;;;;5033775;28;20448;-88
2022/06/02 01:37:34;;;;;;;1.37;1.27;;;13.30;99.90;;;;;;5033701;28;20893;-88
2022/06/02 01:40:10;;;;;;;1.27;1.17;;;13.20;99.90;;;;;;5031904;28;20459;-88
2022/06/02 01:42:50;;;;;;;3.20;1.20;;;13.20;99.90;;;;;;5033025;28;20495;-88
2022/06/02 01:45:35;;;;;;;2.60;1.40;;;13.10;99.90;;;;;;5033118;28;20482;-88
2022/06/02 01:48:15;;;;;;;3.77;1.33;;;13.10;99.90;;;;;;5033104;28;20439;-88
2022/06/02 01:50:50;;;;;;;1.80;1.70;;;13.10;99.90;;;;;;5032663;28;20474;-88
2022/06/02 01:53:25;;;;;;;2.73;1.13;;;13.30;99.90;;;;;;5033349;28;20451;-88
2022/06/02 01:56:11;;;;;;;2.40;1.20;;;13.20;99.90;;;;;;5033324;28;20832;-88
2022/06/02 01:58:53;;;;;;;3.70;1.37;;;13.00;99.90;;;;;;5033258;28;20467;-89
2022/06/02 02:01:36;;;;;;;2.33;1.17;;;13.10;99.90;;;;;;5033302;28;20447;-88
2022/06/02 02:04:17;;;;;;;1.50;1.40;;;13.10;99.90;;;;;;5032191;28;20458;-88
2022/06/02 02:06:53;;;;;;;3.13;1.20;;;13.00;99.90;;;;;;5033132;28;20459;-88
2022/06/02 02:09:24;;;;;;;1.60;1.50;;;15.00;99.90;;;;;;5034325;28;20455;-88
2022/06/02 02:11:54;;;;;;;1.47;1.27;;;12.90;99.90;;;;;;5033015;28;20957;-88
2022/06/02 02:14:48;;;;;;;2.00;1.43;;;12.90;99.90;;;;;;5033176;28;20527;-89
2022/06/02 02:17:30;;;;;;;1.57;1.37;;;12.90;99.90;;;;;;5032724;28;20471;-89
2022/06/02 02:20:06;;;;;;;3.13;1.90;;;12.80;99.90;;;;;;5031743;28;20493;-86
2022/06/02 02:22:56;;;;;;;1.47;1.37;;;14.50;99.90;;;;;;5032990;28;21017;-87
2022/06/02 02:25:29;;;;;;;1.40;1.27;;;12.70;99.90;;;;;;5032874;28;20489;-87
2022/06/02 02:28:03;;;;;;;1.00;1.00;;;12.70;99.90;;;;;;5033745;28;20805;-87
2022/06/02 02:30:39;;;;;;;1.40;1.30;;;12.60;99.90;;;;;;5032862;28;20954;-86
2022/06/02 02:33:27;;;;;;;1.43;1.23;;;12.70;99.90;;;;;;5033244;28;20447;-86
2022/06/02 02:36:03;;;;;;;4.93;1.60;;;12.70;99.90;;;;;;5033858;28;20455;-86
2022/06/02 02:38:38;;;;;;;1.50;1.40;;;12.70;99.90;;;;;;5032811;28;20446;-87
2022/06/02 02:41:11;;;;;;;2.70;1.23;;;12.60;99.90;;;;;;5033118;28;20443;-87
2022/06/02 02:43:45;;;;;;;1.80;1.40;;;12.70;99.90;;;;;;5032545;28;20487;-87
2022/06/02 02:46:17;;;;;;;2.23;1.40;;;12.70;99.90;;;;;;5032535;28;20447;-87
2022/06/02 02:48:55;;;;;;;3.63;1.57;;;12.70;99.90;;;;;;5031299;28;20942;-88
2022/06/02 02:51:32;;;;;;;1.40;1.30;;;12.60;99.90;;;;;;5032743;28;20455;-87
2022/06/02 02:54:08;;;;;;;1.60;1.50;;;12.60;99.90;;;;;;5032723;28;20461;-87
2022/06/02 02:56:41;;;;;;;3.47;1.30;;;12.60;99.90;;;;;;5032218;28;20467;-86
2022/06/02 02:59:21;;;;;;;1.47;1.33;;;12.60;99.90;;;;;;5032473;28;20466;-87
2022/06/02 03:01:55;;;;;;;2.53;1.37;;;12.60;99.90;;;;;;5037133;28;20838;-87
2022/06/02 03:04:38;;;;;;;2.23;1.50;;;12.60;99.90;;;;;;5035628;28;20450;-86
2022/06/02 03:07:06;;;;;;;2.03;1.50;;;12.60;99.90;;;;;;5036433;28;20820;-86
2022/06/02 03:09:42;;;;;;;1.40;1.30;;;12.60;99.90;;;;;;5036027;28;20443;-87
2022/06/02 03:12:16;;;;;;;2.40;1.40;;;12.60;99.90;;;;;;5037391;28;20509;-87
2022/06/02 03:15:08;;;;;;;2.00;1.53;;;12.60;99.90;;;;;;5036280;28;20945;-87
2022/06/02 03:17:57;;;;;;;2.20;1.30;;;12.60;99.90;;;;;;5036678;28;20566;-87
2022/06/02 03:20:39;;;;;;;5.13;1.60;;;12.60;99.90;;;;;;5035035;28;20490;-87
2022/06/02 03:23:39;;;;;;;1.17;1.07;;;12.60;99.90;;;;;;5035813;28;20498;-88
2022/06/02 03:26:10;;;;;;;1.30;1.20;;;12.50;99.90;;;;;;5036098;28;20447;-87
2022/06/02 03:28:48;;;;;;;3.20;1.30;;;12.60;99.90;;;;;;5035732;28;20475;-88
2022/06/02 03:31:23;;;;;;;2.07;1.30;;;12.60;99.90;;;;;;5035861;28;20524;-87
2022/06/02 03:34:03;;;;;;;1.70;1.60;;;12.50;99.90;;;;;;5035686;28;20829;-88
2022/06/02 03:36:48;;;;;;;1.30;1.20;;;12.50;99.90;;;;;;5035754;28;20451;-87
2022/06/02 03:39:27;;;;;;;1.30;1.20;;;12.50;99.90;;;;;;5035626;28;20450;-88
2022/06/02 03:42:10;;;;;;;1.93;1.23;;;12.40;99.90;;;;;;5035736;28;20812;-87
2022/06/02 03:44:55;;;;;;;1.80;1.53;;;12.40;99.90;;;;;;5035492;28;20943;-88
2022/06/02 03:47:32;;;;;;;3.23;1.40;;;12.50;99.90;;;;;;5035972;28;20451;-87
2022/06/02 03:50:22;;;;;;;3.83;1.50;;;12.50;99.90;;;;;;5035625;28;20470;-90
2022/06/02 03:53:05;;;;;;;2.63;1.27;;;12.50;99.90;;;;;;5035502;28;20533;-87
2022/06/02 03:55:44;;;;;;;2.10;1.33;;;12.40;99.90;;;;;;5035646;28;20849;-88
2022/06/02 03:58:24;;;;;;;3.23;1.60;;;12.50;99.90;;;;;;5035129;28;20471;-88
2022/06/02 04:00:54;;;;;;;1.87;1.57;;;12.50;99.90;;;;;;5033721;28;20443;-89
2022/06/02 04:03:37;;;;;;;1.83;1.73;;;12.50;99.90;;;;;;5034412;28;20498;-89
2022/06/02 04:06:14;;;;;;;1.60;1.40;;;12.50;99.90;;;;;;5035457;28;20871;-88
2022/06/02 04:09:09;;;;;;;1.53;1.40;;;12.50;99.90;;;;;;5035184;28;20447;-88
2022/06/02 04:14:43;;;;;;;2.00;1.57;;;12.60;99.90;;;;;;5035987;28;20439;-88
2022/06/02 04:17:26;;;;;;;2.00;1.80;;;12.60;99.90;;;;;;5036396;28;20487;-88
2022/06/02 04:20:35;;;;;;;2.87;1.73;;;12.70;99.90;;;;;;5033978;28;20464;-87
2022/06/02 04:23:34;;;;;;;1.93;1.70;;;12.70;99.90;;;;;;5035120;28;20487;-88
2022/06/02 04:26:15;;;;;;;2.40;1.90;;;12.80;99.90;;;;;;5034971;28;20471;-88
2022/06/02 04:28:53;;;;;;;1.87;1.67;;;12.80;99.90;;;;;;5034943;28;20452;-87
2022/06/02 04:31:33;;;;;;;2.60;1.60;;;12.70;99.90;;;;;;5034810;28;20458;-88
2022/06/02 04:34:11;;;;;;;2.13;1.50;;;13.30;99.90;;;;;;5033913;28;20451;-88
2022/06/02 04:36:45;;;;;;;2.43;1.63;;;12.70;99.90;;;;;;5034767;28;20874;-88
2022/06/02 04:39:18;;;;;;;2.23;1.50;;;12.70;99.90;;;;;;5034639;28;20451;-88
2022/06/02 04:41:51;;;;;;;5.13;1.80;;;12.90;99.90;;;;;;5034601;28;20772;-89
2022/06/02 04:44:39;;;;;;;2.10;1.63;;;12.70;99.90;;;;;;5034388;28;20583;-87
2022/06/02 04:47:15;;;;;;;2.00;1.80;;;12.70;99.90;;;;;;5034616;28;20478;-88
2022/06/02 04:49:49;;;;;;;2.73;1.27;;;12.70;99.90;;;;;;5033470;28;20447;-87
2022/06/02 04:52:23;;;;;;;2.40;1.90;;;12.70;99.90;;;;;;5034235;28;20453;-88
2022/06/02 04:55:00;;;;;;;1.60;1.50;;;12.60;99.90;;;;;;5034170;28;20450;-88
2022/06/02 04:57:33;;;;;;;2.33;1.70;;;12.70;99.90;;;;;;5034312;28;20467;-88
2022/06/02 05:00:08;;;;;;;5.70;1.90;;;12.80;99.90;;;;;;5034262;28;20778;-88
2022/06/02 05:02:46;;;;;;;2.67;1.57;;;12.80;99.90;;;;;;5034275;28;20447;-88
2022/06/02 05:05:17;;;;;;;3.77;2.00;;;12.80;99.90;;;;;;4996094;28;20460;-89
2022/06/02 05:08:07;;;;;;;4.13;1.90;;;12.90;99.90;;;;;;5034192;28;20470;-88
2022/06/02 05:10:41;;;;;;;3.50;1.90;;;13.00;99.90;;;;;;5034024;28;20455;-89
2022/06/02 05:13:15;;;;;;;2.43;2.10;;;13.00;99.90;;;;;;5011962;28;20448;-88
2022/06/02 05:16:05;;;;;;;1.73;1.60;;;13.10;99.90;;;;;;5012043;28;20445;-87
2022/06/02 05:18:58;;;;;;;2.27;1.80;;;13.20;99.90;;;;;;5007898;28;20511;-87
2022/06/02 05:21:50;;;;;;;1.93;1.40;;;13.30;99.90;;;;;;5011979;28;20493;-89
2022/06/02 05:24:41;;;;;;;3.10;1.50;;;13.40;99.90;;;;;;5008662;28;20999;-89
2022/06/02 05:27:36;;;;;;;3.20;1.80;;;13.80;99.90;;;;;;5011894;28;20451;-88
2022/06/02 05:30:40;;;;;;;3.03;1.80;;;14.00;99.90;;;;;;5011569;28;20495;-88
2022/06/02 05:33:35;;;;;;;1.53;1.43;;;14.00;97.30;;;;;;5023243;28;20478;-88
2022/06/02 05:36:35;;;;;;;1.80;1.70;;;14.30;97.20;;;;;;5034063;28;20447;-89
2022/06/02 05:39:18;;;;;;;2.00;1.77;;;14.50;95.80;;;;;;5033622;28;20472;-89
2022/06/02 05:42:01;;;;;;;1.63;1.53;;;15.00;94.50;;;;;;5033801;28;20447;-90
2022/06/02 05:44:39;;;;;;;1.70;1.60;;;15.40;97.00;;;;;;5033498;28;20500;-88
2022/06/02 05:47:16;;;;;;;3.00;2.20;;;15.70;93.80;;;;;;5033655;28;20446;-90
2022/06/02 05:49:55;;;;;;;4.00;2.13;;;15.60;92.80;;;;;;5032229;28;20489;-86
2022/06/02 05:52:34;;;;;;;2.00;1.90;;;15.90;91.70;;;;;;5031493;28;20447;-88
2022/06/02 05:55:27;;;;;;;3.10;1.70;;;16.70;90.90;;;;;;5033080;28;20525;-87
2022/06/02 05:58:03;;;;;;;2.63;2.30;;;16.70;91.30;;;;;;5033546;28;20467;-87
2022/06/02 06:00:41;;;;;;;5.83;1.67;;;17.30;90.50;;;;;;5033162;28;20446;-87
2022/06/02 06:03:50;;;;;;;2.70;1.93;;;17.40;85.50;;;;;;5033149;28;20502;-92
2022/06/02 06:06:29;;;;;;;5.63;1.93;;;17.10;88.10;;;;;;5033354;28;20448;-88
2022/06/02 06:09:17;;;;;;;5.53;1.77;;;17.30;90.30;;;;;;5033013;28;20942;-87
2022/06/02 06:12:05;;;;;;;7.90;1.90;;;16.80;86.40;;;;;;5033210;28;20458;-87
2022/06/02 06:14:39;;;;;;;2.73;1.97;;;16.50;89.60;;;;;;5020458;28;20455;-88
2022/06/02 06:17:14;;;;;;;5.77;2.07;;;17.00;90.20;;;;;;5032566;28;20489;-89
2022/06/02 06:20:02;;;;;;;2.03;1.87;;;17.20;87.10;;;;;;5031736;28;20438;-87
2022/06/02 06:22:46;;;;;;;8.17;2.43;;;16.70;87.20;;;;;;5032950;28;20926;-88
2022/06/02 06:25:27;;;;;;;4.07;1.57;;;17.50;86.70;;;;;;5032774;28;20545;-87
2022/06/02 06:28:13;;;;;;;3.73;2.03;;;17.80;84.80;;;;;;5032896;28;20888;-88
2022/06/02 06:30:53;;;;;;;1.90;1.80;;;18.00;82.50;;;;;;5034165;28;20455;-90
2022/06/02 06:33:37;;;;;;;2.47;2.27;;;18.50;81.40;;;;;;5034255;28;20454;-89
2022/06/02 06:36:14;;;;;;;1.90;1.80;;;18.40;80.50;;;;;;5039883;28;20440;-88
2022/06/02 06:38:59;;;;;;;4.80;1.73;;;18.30;80.40;;;;;;5039575;28;20447;-94
2022/06/02 06:41:51;;;;;;;3.03;1.80;;;18.50;79.80;;;;;;5054402;28;20950;-95
2022/06/02 06:44:26;;;;;;;3.43;1.87;;;18.60;78.70;;;;;;5045272;28;20475;-92
2022/06/02 06:47:01;;;;;;;3.30;2.13;;;18.20;78.50;;;;;;5052615;23;20454;-94
2022/06/02 06:49:42;;;;;;;2.20;1.57;;;18.00;79.90;;;;;;5018042;28;20456;-94
2022/06/02 06:52:22;;;;;;;1.80;1.67;;;18.40;79.60;;;;;;5014467;28;20462;-93
2022/06/02 06:55:01;;;;;;;1.87;1.50;;;18.20;80.50;;;;;;5019866;28;20510;-89
2022/06/02 06:57:32;;;;;;;2.23;2.00;;;;;;;;;;5024007;28;20558;-93
2022/06/02 07:00:07;;;;;;;2.20;1.73;;;19.00;78.10;;;;;;5027974;28;20519;-92
2022/06/02 07:02:55;;;;;;;2.07;1.87;;;19.00;77.70;;;;;;5037146;28;20462;-92
2022/06/02 07:05:29;;;;;;;3.13;1.97;;;19.20;77.10;;;;;;5030293;28;20474;-92
2022/06/02 07:08:04;;;;;;;2.77;1.60;;;19.10;77.30;;;;;;5016580;28;20558;-91
2022/06/02 07:10:38;;;;;;;2.70;1.93;;;18.90;77.10;;;;;;5017673;28;20452;-91
2022/06/02 07:13:15;;;;;;;3.30;1.37;;;18.90;79.20;;;;;;5018627;28;20951;-93
2022/06/02 07:15:49;;;;;;;2.97;2.10;;;19.50;81.40;;;;;;5017962;28;20514;-89
2022/06/02 07:18:27;;;;;;;3.60;1.53;;;19.30;79.90;;;;;;5017781;28;20810;-90
2022/06/02 07:21:01;;;;;;;3.97;2.17;;;19.40;80.50;;;;;;5017332;28;20459;-91
2022/06/02 07:23:55;;;;;;;2.50;2.17;;;19.70;77.50;;;;;;5017450;28;20858;-89
2022/06/02 07:26:35;;;;;;;2.63;2.00;;;19.70;77.60;;;;;;5017183;28;20464;-91
2022/06/02 07:29:13;;;;;;;1.83;1.63;;;19.50;75.70;;;;;;5020086;28;20914;-90
2022/06/02 07:32:14;;;;;;;2.17;1.70;;;19.50;79.20;;;;;;5019236;28;20452;-90
2022/06/02 07:35:24;;;;;;;2.70;1.87;;;19.50;75.10;;;;;;5021141;28;20547;-95
2022/06/02 07:37:58;;;;;;;3.03;2.03;;;19.30;77.50;;;;;;5017123;28;20460;-90
2022/06/02 07:41:01;;;;;;;7.70;1.87;;;20.00;77.30;;;;;;5017186;28;20456;-90
2022/06/02 07:44:03;;;;;;;2.13;1.70;;;19.80;74.40;;;;;;5019084;28;20510;-91
2022/06/02 07:46:51;;;;;;;1.60;1.50;;;19.10;74.60;;;;;;5017308;28;20447;-92
2022/06/02 07:49:43;;;;;;;1.63;1.53;;;19.90;74.80;;;;;;5018066;28;20981;-90
2022/06/02 07:52:18;;;;;;;2.37;1.60;;;20.40;73.90;;;;;;5020349;28;20449;-89
2022/06/02 07:55:00;;;;;;;1.93;1.77;;;20.40;70.40;;;;;;5021040;28;20483;-94
2022/06/02 07:57:38;;;;;;;3.27;1.50;;;21.00;71.70;;;;;;5020206;28;20494;-94
2022/06/02 08:00:17;;;;;;;2.43;1.60;;;20.40;71.70;;;;;;5017642;28;20456;-87
2022/06/02 08:03:18;;;;;;;2.47;1.60;;;20.40;73.10;;;;;;5015166;28;20460;-86
2022/06/02 08:05:51;;;;;;;3.70;1.87;;;20.90;73.50;;;;;;5004917;28;20471;-85
2022/06/02 08:08:29;;;;;;;2.30;1.70;;;20.90;72.00;;;;;;5015577;28;20939;-86
2022/06/02 08:11:20;;;;;;;3.77;1.90;;;21.50;75.10;;;;;;5015318;28;20551;-86
2022/06/02 08:13:57;;;;;;;4.90;2.00;;;21.90;69.30;;;;;;5015286;28;20456;-85
2022/06/02 08:16:30;;;;;;;5.27;2.00;;;22.50;70.30;;;;;;5016693;28;20555;-88
2022/06/02 08:19:10;;;;;;;3.60;1.73;;;22.80;65.50;;;;;;5017278;28;20452;-88
2022/06/02 08:21:42;;;;;;;3.57;2.00;;;21.90;66.70;;;;;;5019891;28;20451;-93
2022/06/02 08:24:33;;;;;;;1.40;1.30;;;21.80;69.50;;;;;;5017227;28;20484;-87
2022/06/02 08:27:35;;;;;;;2.20;1.50;;;22.00;70.30;;;;;;5016426;28;20437;-88
2022/06/02 08:30:09;;;;;;;1.80;1.70;;;21.60;66.00;;;;;;5005658;28;20456;-86
2022/06/02 08:32:57;;;;;;;3.23;1.50;;;22.10;69.00;;;;;;5012872;28;20448;-87
2022/06/02 08:35:29;;;;;;;2.00;1.73;;;21.80;65.70;;;;;;5014121;28;20452;-93
2022/06/02 08:38:15;;;;;;;1.83;1.40;;;21.30;69.20;;;;;;5015539;28;20457;-87
2022/06/02 08:41:30;;;;;;;5.07;2.27;;;22.20;65.20;;;;;;5017782;28;20460;-93
2022/06/02 08:44:33;;;;;;;2.90;1.70;;;22.70;62.70;;;;;;5017846;28;20906;-90
2022/06/02 08:47:33;;;;;;;1.60;1.50;;;22.30;63.90;;;;;;5019704;28;20468;-90
2022/06/02 08:50:28;;;;;;;3.43;2.00;;;22.60;65.60;;;;;;5014553;28;20448;-90
2022/06/02 08:53:32;;;;;;;1.37;1.20;;;22.60;70.00;;;;;;5001903;28;20816;-89
2022/06/02 08:56:38;;;;;;;2.87;1.67;;;23.00;67.70;;;;;;4989668;28;20998;-90
2022/06/02 08:59:38;;;;;;;1.80;1.70;;;22.40;63.00;;;;;;5013017;28;20479;-91
2022/06/02 09:02:31;;;;;;;1.90;1.63;;;22.70;62.50;;;;;;5020096;28;20453;-93
2022/06/02 09:05:33;;;;;;;3.77;2.10;;;22.90;62.70;;;;;;4984395;28;20487;-93
2022/06/02 09:11:22;;;;;;;1.70;1.60;;;23.10;59.30;;;;;;5133060;27;21107;-90
2022/06/02 09:14:19;;;;;;;1.83;1.70;;;23.20;62.50;;;;;;5115887;27;20447;-87
2022/06/02 09:16:58;;;;;;;2.50;2.00;;;23.50;64.60;;;;;;5131758;28;20443;-86
2022/06/02 09:19:47;;;;;;;2.10;1.70;;;23.40;60.10;;;;;;5131131;27;20848;-90
2022/06/02 09:23:02;;;;;;;5.57;1.77;;;23.50;60.30;;;;;;5127568;27;20507;-89
2022/06/02 09:25:42;;;;;;;2.03;1.57;;;22.90;60.40;;;;;;5056383;28;20453;-89
2022/06/02 09:28:38;;;;;;;4.43;1.43;;;22.90;63.90;;;;;;5132336;27;20504;-86
2022/06/02 09:31:27;;;;;;;5.00;1.40;;;23.50;63.60;;;;;;5131581;27;20435;-93
2022/06/02 09:34:09;;;;;;;2.90;1.93;;;24.30;60.30;;;;;;5130605;27;20451;-90
2022/06/02 09:37:01;;;;;;;4.23;1.50;;;24.60;63.70;;;;;;5131700;27;20807;-90
2022/06/02 09:39:41;;;;;;;1.53;1.43;;;23.80;57.90;;;;;;5131978;27;20446;-91
2022/06/02 09:42:24;;;;;;;4.50;1.73;;;23.90;61.20;;;;;;5131880;27;20937;-89
2022/06/02 09:45:09;;;;;;;2.03;1.50;;;24.90;60.60;;;;;;5132423;27;20439;-88
2022/06/02 09:48:07;;;;;;;4.30;1.77;;;24.90;59.50;;;;;;5134328;28;20443;-88
2022/06/02 09:51:16;;;;;;;1.70;1.40;;;24.10;59.00;;;;;;5117051;27;20486;-87
2022/06/02 09:54:06;;;;;;;2.00;1.63;;;24.70;58.70;;;;;;5049537;28;20446;-89
2022/06/02 09:56:59;;;;;;;4.03;1.67;;;23.80;58.40;;;;;;5131402;27;20470;-87
2022/06/02 09:59:36;;;;;;;1.63;1.40;;;23.30;63.80;;;;;;5120225;27;20447;-88
2022/06/02 10:02:25;;;;;;;2.80;2.27;;;23.10;58.70;;;;;;5131450;27;20450;-87
2022/06/02 10:05:07;;;;;;;2.37;1.80;;;22.90;63.00;;;;;;5130189;27;20443;-87
2022/06/02 10:07:45;;;;;;;1.53;1.40;;;24.10;58.60;;;;;;5131207;27;20450;-88
2022/06/02 10:10:39;;;;;;;2.17;1.97;;;23.70;59.90;;;;;;5130821;27;20491;-87
2022/06/02 10:13:41;;;;;;;4.50;1.67;;;25.10;56.80;;;;;;5131070;27;20770;-88
2022/06/02 10:16:49;;;;;;;2.90;2.07;;;24.90;56.70;;;;;;5110997;27;20439;-88
2022/06/02 10:19:50;;;;;;;3.57;1.90;;;23.20;59.00;;;;;;5130242;27;20447;-91
2022/06/02 10:22:24;;;;;;;4.03;2.00;;;24.30;61.20;;;;;;5117383;27;20917;-90
2022/06/02 10:25:23;;;;;;;2.80;1.90;;;24.10;57.90;;;;;;5116844;28;20444;-90
2022/06/02 10:28:23;;;;;;;2.23;1.63;;;23.80;58.10;;;;;;5090249;28;20451;-90
2022/06/02 10:31:24;;;;;;;1.60;1.50;;;24.70;62.10;;;;;;5115078;28;20522;-90
2022/06/02 10:34:24;;;;;;;2.17;1.90;;;24.40;57.20;;;;;;5119137;28;20451;-90
2022/06/02 10:37:25;;;;;;;2.00;1.50;;;24.50;57.40;;;;;;5119792;28;20452;-89
2022/06/02 10:40:24;;;;;;;2.57;1.53;;;24.50;62.40;;;;;;5117477;28;20432;-92
2022/06/02 10:43:06;;;;;;;1.80;1.70;;;24.90;60.50;;;;;;5119855;27;20505;-89
2022/06/02 10:46:05;;;;;;;2.80;1.60;;;24.70;61.10;;;;;;5118234;28;20424;-92
2022/06/02 10:49:07;;;;;;;2.23;1.60;;;24.90;58.60;;;;;;5119849;27;20820;-89
2022/06/02 10:52:10;;;;;;;1.90;1.60;;;24.90;58.50;;;;;;5117674;28;20498;-89
2022/06/02 10:55:14;;;;;;;3.50;1.93;;;24.50;58.70;;;;;;5116315;28;20460;-88
2022/06/02 10:58:14;;;;;;;3.77;1.70;;;25.30;79.70;;;;;;5116236;28;20960;-88
2022/06/02 11:01:03;;;;;;;2.40;1.30;;;25.40;64.10;;;;;;5116277;28;20446;-88
2022/06/02 11:03:57;;;;;;;3.00;1.90;;;26.20;65.30;;;;;;5115166;28;20448;-89
2022/06/02 11:07:03;;;;;;;1.80;1.70;;;25.40;72.80;;;;;;5116332;28;20455;-88
2022/06/02 11:10:05;;;;;;;40.53;33.87;;;25.70;77.50;;;;;;5117168;28;20491;-88
2022/06/02 11:13:14;;;;;;;3.93;1.93;;;25.40;56.20;;;;;;5117231;27;20450;-89
2022/06/02 11:16:11;;;;;;;2.43;1.50;;;26.10;61.40;;;;;;5116503;27;20501;-87
2022/06/02 11:19:33;;;;;;;1.90;1.67;;;24.50;56.10;;;;;;5118508;27;20451;-89
2022/06/02 11:22:25;;;;;;;2.60;1.87;;;24.60;58.40;;;;;;5116693;28;20460;-87
2022/06/02 11:25:35;;;;;;;2.27;2.07;;;24.80;58.90;;;;;;5116043;28;20447;-87
2022/06/02 11:28:43;;;;;;;1.93;1.83;;;25.10;58.40;;;;;;5116013;28;20448;-88
2022/06/02 11:31:38;;;;;;;2.27;1.93;;;24.70;59.00;;;;;;5116152;28;20519;-90
2022/06/02 11:34:25;;;;;;;3.97;2.00;;;25.30;56.50;;;;;;5114394;28;20463;-91
2022/06/02 11:37:29;;;;;;;2.27;1.80;;;25.30;60.50;;;;;;5117777;28;20436;-91
2022/06/02 11:40:23;;;;;;;1.90;1.60;;;25.20;62.00;;;;;;5121982;28;20451;-85
2022/06/02 11:42:58;;;;;;;2.97;1.90;;;25.10;60.90;;;;;;5115422;28;20448;-88
2022/06/02 11:45:55;;;;;;;2.17;1.80;;;25.50;61.30;;;;;;5115500;28;20451;-89
2022/06/02 11:48:54;;;;;;;4.23;2.20;;;25.30;56.30;;;;;;5115346;28;20450;-94
2022/06/02 11:51:58;;;;;;;1.83;1.60;;;25.60;57.20;;;;;;5119393;28;20484;-89
2022/06/02 11:55:16;;;;;;;4.70;1.67;;;25.80;57.10;;;;;;5117088;28;20518;-88
2022/06/02 11:58:11;;;;;;;2.03;1.83;;;24.80;61.50;;;;;;5116534;28;20811;-90
2022/06/02 12:01:13;;;;;;;2.33;1.80;;;25.60;56.30;;;;;;5091423;28;20452;-88
2022/06/02 12:04:06;;;;;;;1.70;1.60;;;25.30;56.00;;;;;;5115669;28;20453;-90
2022/06/02 12:07:09;;;;;;;1.97;1.83;;;24.70;56.40;;;;;;5120179;27;20464;-90
2022/06/02 12:10:08;;;;;;;2.90;1.80;;;24.90;58.30;;;;;;5118122;27;20479;-90
2022/06/02 12:12:55;;;;;;;2.73;1.60;;;24.90;57.10;;;;;;5116590;28;20509;-90
2022/06/02 12:15:55;;;;;;;1.60;1.50;;;25.40;59.70;;;;;;5116103;28;20474;-89
2022/06/02 12:18:28;;;;;;;2.27;1.70;;;25.80;62.20;;;;;;5114671;28;20440;-89
2022/06/02 12:21:40;;;;;;;2.47;2.00;;;24.90;58.50;;;;;;5114814;28;20856;-90
2022/06/02 12:24:38;;;;;;;2.00;1.67;;;24.50;57.10;;;;;;5115783;28;20531;-92
2022/06/02 12:27:32;;;;;;;3.00;2.00;;;23.60;58.80;;;;;;5116369;28;20477;-91
2022/06/02 12:30:14;;;;;;;3.60;1.90;;;24.00;63.00;;;;;;5108026;28;20859;-89
2022/06/02 12:32:59;;;;;;;1.73;1.63;;;24.40;62.10;;;;;;5116221;28;20444;-90
2022/06/02 12:35:41;;;;;;;3.70;2.00;;;24.80;58.80;;;;;;5116223;28;20534;-88
2022/06/02 12:38:32;;;;;;;2.20;2.00;;;24.70;62.10;;;;;;5115691;28;20977;-89
2022/06/02 12:41:20;;;;;;;5.13;2.13;;;24.80;60.70;;;;;;5113294;28;20455;-88
2022/06/02 12:44:15;;;;;;;2.33;1.83;;;24.40;60.00;;;;;;5114374;28;20448;-90
2022/06/02 12:47:05;;;;;;;3.13;2.00;;;25.00;59.90;;;;;;5116135;28;20473;-91
2022/06/02 12:50:10;;;;;;;4.57;2.20;;;24.90;57.50;;;;;;5106952;28;20454;-90
2022/06/02 12:53:15;;;;;;;3.47;1.90;;;24.20;57.50;;;;;;5101935;28;20451;-91
2022/06/02 12:56:05;;;;;;;3.50;1.87;;;24.00;61.50;;;;;;5099847;28;20793;-91
2022/06/02 12:59:03;;;;;;;3.57;1.50;;;24.70;64.80;;;;;;5120449;28;20439;-92
2022/06/02 13:02:04;;;;;;;2.33;1.80;;;25.40;61.90;;;;;;5117028;28;20452;-91
2022/06/02 13:05:16;;;;;;;4.03;1.90;;;25.80;61.20;;;;;;5105245;28;20456;-92
2022/06/02 13:08:32;;;;;;;2.70;1.70;;;26.10;60.90;;;;;;5116094;28;20443;-92
2022/06/02 13:11:19;;;;;;;4.60;1.90;;;25.40;64.80;;;;;;5115111;28;20483;-90
2022/06/02 13:14:19;;;;;;;3.07;1.97;;;24.70;62.40;;;;;;5114337;28;20440;-90
2022/06/02 13:17:09;;;;;;;3.67;1.90;;;25.20;64.70;;;;;;5119194;27;20456;-92
2022/06/02 13:20:05;;;;;;;2.13;1.83;;;24.00;60.40;;;;;;5114515;28;20451;-87
2022/06/02 13:23:10;;;;;;;2.00;1.90;;;24.40;64.30;;;;;;5087421;28;20451;-91
2022/06/02 13:26:12;;;;;;;1.80;1.70;;;24.70;62.60;;;;;;5091522;28;20443;-88
2022/06/02 13:29:21;;;;;;;3.30;1.70;;;24.00;59.40;;;;;;5114784;28;20455;-87
2022/06/02 13:32:35;;;;;;;2.90;1.77;;;23.20;60.50;;;;;;5084623;28;20561;-88
2022/06/02 13:35:48;;;;;;;3.60;1.63;;;23.40;60.50;;;;;;5112528;28;20489;-87
2022/06/02 13:38:34;;;;;;;2.20;1.87;;;23.70;67.60;;;;;;5055939;28;20451;-86
2022/06/02 13:41:30;;;;;;;3.80;2.03;;;23.50;68.10;;;;;;5113134;28;20459;-87
2022/06/02 13:44:27;;;;;;;3.67;2.20;;;23.90;72.60;;;;;;5113528;28;20440;-88
2022/06/02 13:47:35;;;;;;;2.00;1.90;;;22.90;65.20;;;;;;5100411;28;20460;-87
2022/06/02 13:50:32;;;;;;;4.33;1.60;;;22.70;70.00;;;;;;5086079;28;20480;-88
2022/06/02 13:59:53;;;;;;;2.07;1.90;;;23.50;64.10;;;;;;5117637;28;20435;-87
2022/06/02 14:02:57;;;;;;;2.07;1.97;;;24.60;65.00;;;;;;5117094;28;20462;-90
2022/06/02 14:05:40;;;;;;;2.00;1.53;;;24.70;64.20;;;;;;5116475;28;20458;-89
2022/06/02 14:08:36;;;;;;;2.00;1.83;;;25.10;58.70;;;;;;5117186;28;20432;-88
2022/06/02 14:11:17;;;;;;;2.77;1.90;;;24.70;62.00;;;;;;5114032;28;20501;-87
2022/06/02 14:14:17;;;;;;;2.10;1.90;;;24.40;58.80;;;;;;5118057;28;20462;-89
2022/06/02 14:16:58;;;;;;;2.60;1.73;;;24.80;65.40;;;;;;5117110;28;20436;-87
2022/06/02 14:19:37;;;;;;;2.73;1.73;;;24.50;62.00;;;;;;5118153;27;20455;-90
2022/06/02 14:22:14;;;;;;;4.90;2.60;;;24.50;60.60;;;;;;5117822;28;20500;-91
2022/06/02 14:24:52;;;;;;;2.23;2.07;;;24.60;65.10;;;;;;5119065;28;20969;-93
2022/06/02 14:27:31;;;;;;;2.60;2.00;;;23.90;64.50;;;;;;5117400;28;20797;-89
2022/06/02 14:30:07;;;;;;;2.17;1.97;;;23.80;65.10;;;;;;5114271;28;20937;-86
2022/06/02 14:32:48;;;;;;;1.87;1.77;;;23.30;67.70;;;;;;5116627;28;20923;-89
2022/06/02 14:35:31;;;;;;;3.87;2.37;;;23.20;62.80;;;;;;5115387;28;20444;-86
2022/06/02 14:38:08;;;;;;;1.70;1.60;;;23.30;68.50;;;;;;5115885;28;20789;-89
2022/06/02 14:40:39;;;;;;;2.53;1.93;;;23.20;65.30;;;;;;5099159;27;20480;-88
2022/06/02 14:43:29;;;;;;;4.10;2.23;;;23.00;67.90;;;;;;5096310;28;20499;-91